Time;durP1;ratioP1;P1;durP2;ratioP2;P2;SDS_P1;SDS_P2;PMS_P1;PMS_P2;Temp;Humidity;BMP_temperature;BMP_pressure;BME280_temperature;BME280_humidity;BME280_pressure;Samples;Min_cycle;Max_cycle;Signal;HPM_P1;HPM_P2
2021/11/21 00:01:26;;;;;;;0.35;0.22;;;;;15.90;100666.00;;;;5091474;28;20093;-80
2021/11/21 00:03:56;;;;;;;0.00;0.00;;;;;15.80;100655.00;;;;5109082;28;20051;-81
2021/11/21 00:06:25;;;;;;;0.00;0.00;;;;;15.60;100658.00;;;;5109329;28;20062;-81
2021/11/21 00:08:55;;;;;;;0.10;0.10;;;;;15.70;100662.00;;;;5109266;28;20044;-80
2021/11/21 00:11:24;;;;;;;0.10;0.10;;;;;15.80;100671.00;;;;5090986;28;20426;-81
2021/11/21 00:13:53;;;;;;;0.43;0.28;;;;;15.70;100652.00;;;;5108594;28;20047;-80
2021/11/21 00:16:23;;;;;;;2.05;0.17;;;;;15.60;100653.00;;;;5108391;28;20054;-81
2021/11/21 00:18:52;;;;;;;7.93;0.88;;;;;15.70;100662.00;;;;5108316;28;20047;-81
2021/11/21 00:21:23;;;;;;;0.73;0.30;;;;;15.80;100660.00;;;;5108807;28;20048;-80
2021/11/21 00:23:53;;;;;;;0.00;0.00;;;;;15.60;100671.00;;;;5109349;28;20054;-80
2021/11/21 00:26:22;;;;;;;0.00;0.00;;;;;15.50;100666.00;;;;5090336;28;20174;-79
2021/11/21 00:28:54;;;;;;;0.10;0.10;;;;;15.40;100671.00;;;;5105746;28;20050;-80
2021/11/21 00:31:23;;;;;;;0.00;0.00;;;;;15.40;100670.00;;;;5083274;28;20097;-80
2021/11/21 00:33:52;;;;;;;0.10;0.10;;;;;15.40;100655.00;;;;5079279;28;20056;-80
2021/11/21 00:36:22;;;;;;;0.10;0.10;;;;;15.40;100673.00;;;;5096055;28;20040;-80
2021/11/21 00:38:51;;;;;;;0.35;0.20;;;;;15.40;100667.00;;;;5097563;28;20514;-80
2021/11/21 00:41:22;;;;;;;0.55;0.20;;;;;15.50;100664.00;;;;5098189;28;20040;-80
2021/11/21 00:43:52;;;;;;;0.00;0.00;;;;;15.60;100666.00;;;;5080784;28;20044;-80
2021/11/21 00:46:23;;;;;;;0.10;0.10;;;;;15.50;100679.00;;;;5097539;28;20043;-81
2021/11/21 00:48:54;;;;;;;0.52;0.20;;;;;15.60;100678.00;;;;5096610;28;20481;-80
2021/11/21 00:51:23;;;;;;;0.93;0.40;;;;;15.50;100680.00;;;;5097039;28;20043;-80
2021/11/21 00:54:04;;;;;;;0.13;0.13;;;;;15.50;100665.00;;;;5098146;28;20051;-80
2021/11/21 00:56:33;;;;;;;0.10;0.10;;;;;15.40;100650.00;;;;5097004;28;20068;-82
2021/11/21 00:59:03;;;;;;;0.30;0.28;;;;;15.60;100662.00;;;;5099573;28;20093;-80
2021/11/21 01:01:32;;;;;;;0.00;0.00;;;;;15.50;100656.00;;;;5096031;28;20582;-81
2021/11/21 01:04:02;;;;;;;0.00;0.00;;;;;15.30;100665.00;;;;5096463;28;20039;-80
2021/11/21 01:06:32;;;;;;;0.00;0.00;;;;;15.20;100651.00;;;;5079420;28;20051;-79
2021/11/21 01:09:01;;;;;;;0.85;0.35;;;;;15.30;100664.00;;;;5079341;28;20399;-80
2021/11/21 01:11:30;;;;;;;0.00;0.00;;;;;15.40;100659.00;;;;5095785;28;20078;-80
2021/11/21 01:14:00;;;;;;;0.63;0.45;;;;;15.40;100657.00;;;;5087885;28;20040;-81
2021/11/21 01:16:29;;;;;;;0.47;0.40;;;;;15.30;100662.00;;;;5086994;28;20080;-80
2021/11/21 01:18:59;;;;;;;0.75;0.43;;;;;15.20;100661.00;;;;5086786;28;20051;-80
2021/11/21 01:21:29;;;;;;;0.25;0.20;;;;;15.30;100650.00;;;;5086755;28;20048;-80
2021/11/21 01:23:59;;;;;;;0.10;0.10;;;;;15.20;100655.00;;;;5069598;28;20529;-80
2021/11/21 01:26:29;;;;;;;0.10;0.10;;;;;15.30;100649.00;;;;5068595;28;20502;-79
2021/11/21 01:28:58;;;;;;;0.10;0.10;;;;;15.30;100653.00;;;;5078068;28;20055;-80
2021/11/21 01:31:27;;;;;;;0.13;0.13;;;;;15.30;100650.00;;;;5096145;28;20044;-80
2021/11/21 01:33:57;;;;;;;0.93;0.25;;;;;15.40;100656.00;;;;5097740;28;20374;-79
2021/11/21 01:36:26;;;;;;;0.00;0.00;;;;;15.30;100654.00;;;;5102831;28;20047;-80
2021/11/21 01:38:56;;;;;;;3.80;0.20;;;;;15.10;100653.00;;;;5106488;28;20167;-81
2021/11/21 01:41:25;;;;;;;0.00;0.00;;;;;15.10;100655.00;;;;5087242;28;20039;-80
2021/11/21 01:43:54;;;;;;;0.10;0.10;;;;;15.20;100660.00;;;;5104743;28;20036;-80
2021/11/21 01:46:36;;;;;;;0.00;0.00;;;;;15.10;100663.00;;;;5105392;28;20043;-80
2021/11/21 01:49:07;;;;;;;0.10;0.08;;;;;15.20;100652.00;;;;5088014;28;20403;-80
2021/11/21 01:51:37;;;;;;;0.00;0.00;;;;;15.30;100648.00;;;;5105840;28;20085;-80
2021/11/21 01:54:07;;;;;;;0.00;0.00;;;;;15.40;100665.00;;;;5107056;28;20048;-81
2021/11/21 01:56:36;;;;;;;1.60;0.10;;;;;15.30;100650.00;;;;5107130;28;20039;-80
2021/11/21 01:59:06;;;;;;;0.25;0.25;;;;;15.30;100654.00;;;;5089147;28;20062;-79
2021/11/21 02:01:35;;;;;;;0.65;0.30;;;;;15.20;100661.00;;;;5108282;28;20579;-79
2021/11/21 02:04:05;;;;;;;0.10;0.10;;;;;15.40;100636.00;;;;5107623;28;20092;-80
2021/11/21 02:06:34;;;;;;;0.15;0.10;;;;;15.50;100655.00;;;;5107361;28;20501;-83
2021/11/21 02:09:05;;;;;;;0.00;0.00;;;;;15.30;100648.00;;;;5107042;28;20047;-80
2021/11/21 02:11:34;;;;;;;0.05;0.05;;;;;15.40;100655.00;;;;5107271;28;20084;-79
2021/11/21 02:14:03;;;;;;;0.10;0.03;;;;;15.40;100641.00;;;;5106946;28;20047;-80
2021/11/21 02:16:35;;;;;;;0.10;0.10;;;;;15.30;100646.00;;;;5107123;28;20058;-80
2021/11/21 02:19:05;;;;;;;0.00;0.00;;;;;15.10;100644.00;;;;5106874;28;20040;-80
2021/11/21 02:21:34;;;;;;;0.52;0.10;;;;;15.00;100650.00;;;;5106949;28;20055;-80
2021/11/21 02:24:04;;;;;;;0.00;0.00;;;;;14.90;100640.00;;;;5107827;28;20051;-82
2021/11/21 02:26:34;;;;;;;0.00;0.00;;;;;14.90;100646.00;;;;5106897;28;20051;-80
2021/11/21 02:29:03;;;;;;;0.10;0.10;;;;;14.90;100650.00;;;;5107265;28;20371;-81
2021/11/21 02:31:33;;;;;;;0.00;0.00;;;;;14.80;100642.00;;;;5106716;28;20105;-80
2021/11/21 02:34:02;;;;;;;0.00;0.00;;;;;14.80;100642.00;;;;5106785;28;20127;-81
2021/11/21 02:36:32;;;;;;;0.10;0.10;;;;;14.80;100634.00;;;;5107340;28;20039;-80
2021/11/21 02:39:02;;;;;;;0.00;0.00;;;;;14.70;100638.00;;;;5088501;28;20044;-79
2021/11/21 02:41:32;;;;;;;0.00;0.00;;;;;14.70;100635.00;;;;5107292;28;20040;-80
2021/11/21 02:44:01;;;;;;;0.15;0.15;;;;;14.60;100629.00;;;;5106677;28;20047;-80
2021/11/21 02:46:31;;;;;;;0.00;0.00;;;;;14.60;100629.00;;;;5107111;28;20168;-80
2021/11/21 02:49:01;;;;;;;0.30;0.30;;;;;14.60;100619.00;;;;5088889;28;20391;-80
2021/11/21 02:51:30;;;;;;;0.00;0.00;;;;;14.50;100641.00;;;;5107777;28;20127;-81
2021/11/21 02:54:00;;;;;;;0.00;0.00;;;;;14.30;100630.00;;;;5107140;28;20482;-80
2021/11/21 02:56:30;;;;;;;2.40;0.10;;;;;14.30;100626.00;;;;5106674;28;20423;-81
2021/11/21 02:58:59;;;;;;;0.00;0.00;;;;;14.30;100632.00;;;;5106662;28;20433;-81
2021/11/21 03:01:29;;;;;;;0.45;0.15;;;;;14.30;100639.00;;;;5109701;28;20515;-81
2021/11/21 03:03:58;;;;;;;0.00;0.00;;;;;14.20;100625.00;;;;5110820;28;20399;-81
2021/11/21 03:06:29;;;;;;;1.92;0.50;;;;;14.10;100626.00;;;;5109906;28;20069;-80
2021/11/21 03:08:58;;;;;;;0.00;0.00;;;;;14.10;100625.00;;;;5110249;28;20047;-80
2021/11/21 03:11:35;;;;;;;0.00;0.00;;;;;13.90;100620.00;;;;5110166;28;20418;-80
2021/11/21 03:14:06;;;;;;;0.25;0.25;;;;;13.90;100611.00;;;;5110976;28;20070;-79
2021/11/21 03:16:36;;;;;;;0.00;0.00;;;;;14.00;100610.00;;;;5111054;28;20047;-80
2021/11/21 03:19:06;;;;;;;0.00;0.00;;;;;13.90;100599.00;;;;5110153;28;20418;-80
2021/11/21 03:21:35;;;;;;;0.00;0.00;;;;;13.80;100599.00;;;;5110177;28;20048;-80
2021/11/21 03:24:05;;;;;;;0.47;0.20;;;;;13.70;100591.00;;;;5091848;28;20055;-80
2021/11/21 03:26:35;;;;;;;0.00;0.00;;;;;13.70;100603.00;;;;5109159;28;20100;-81
2021/11/21 03:29:05;;;;;;;0.00;0.00;;;;;13.70;100596.00;;;;5109678;28;20048;-81
2021/11/21 03:31:35;;;;;;;0.03;0.03;;;;;13.60;100580.00;;;;5108843;28;20494;-80
2021/11/21 03:34:05;;;;;;;0.00;0.00;;;;;13.60;100590.00;;;;5106708;28;20043;-81
2021/11/21 03:36:35;;;;;;;0.00;0.00;;;;;13.50;100596.00;;;;5089251;28;20051;-80
2021/11/21 03:39:06;;;;;;;0.00;0.00;;;;;13.40;100595.00;;;;5109805;28;20043;-81
2021/11/21 03:41:36;;;;;;;;;;;;;13.40;100590.00;;;;5110685;28;20040;-80
2021/11/21 03:44:07;;;;;;;0.00;0.00;;;;;13.40;100571.00;;;;5109517;28;19920;-80
2021/11/21 03:46:39;;;;;;;0.20;0.20;;;;;13.50;100574.00;;;;5091266;28;20422;-80
2021/11/21 03:49:10;;;;;;;0.00;0.00;;;;;13.50;100578.00;;;;5109384;28;20522;-80
2021/11/21 03:51:40;;;;;;;0.10;0.10;;;;;13.50;100552.00;;;;5109171;28;20051;-80
2021/11/21 03:54:09;;;;;;;0.10;0.10;;;;;13.40;100560.00;;;;5109570;28;20440;-80
2021/11/21 03:56:39;;;;;;;0.00;0.00;;;;;13.40;100567.00;;;;5091419;28;20046;-79
2021/11/21 03:59:09;;;;;;;0.00;0.00;;;;;13.30;100561.00;;;;5109012;28;20048;-80
2021/11/21 04:01:38;;;;;;;0.00;0.00;;;;;13.20;100545.00;;;;5091517;28;20054;-80
2021/11/21 04:04:10;;;;;;;0.35;0.28;;;;;13.10;100545.00;;;;5109540;28;20040;-80
2021/11/21 04:06:40;;;;;;;0.00;0.00;;;;;13.20;100549.00;;;;5109277;28;20050;-80
2021/11/21 04:09:09;;;;;;;0.00;0.00;;;;;13.00;100540.00;;;;5090868;28;20499;-80
2021/11/21 04:11:38;;;;;;;0.20;0.17;;;;;13.00;100533.00;;;;5108603;28;20600;-80
2021/11/21 04:14:08;;;;;;;0.55;0.30;;;;;13.20;100541.00;;;;5109071;28;20521;-80
2021/11/21 04:16:38;;;;;;;0.10;0.10;;;;;13.20;100537.00;;;;5109125;28;20092;-80
2021/11/21 04:19:09;;;;;;;0.03;0.03;;;;;13.20;100543.00;;;;5090241;28;20642;-80
2021/11/21 04:21:38;;;;;;;0.05;0.05;;;;;13.10;100533.00;;;;5109521;28;20047;-80
2021/11/21 04:24:12;;;;;;;0.08;0.08;;;;;13.10;100533.00;;;;5090406;28;20055;-79
2021/11/21 04:26:44;;;;;;;10.02;0.70;;;;;13.00;100537.00;;;;5109609;28;20043;-80
2021/11/21 04:29:13;;;;;;;;;;;;;12.90;100539.00;;;;5109653;28;20039;-80
2021/11/21 04:31:42;;;;;;;0.00;0.00;;;;;12.90;100529.00;;;;5108504;28;19923;-81
2021/11/21 04:34:12;;;;;;;0.00;0.00;;;;;12.90;100535.00;;;;5090853;28;20096;-80
2021/11/21 04:36:41;;;;;;;0.00;0.00;;;;;12.90;100526.00;;;;5108099;28;20043;-80
2021/11/21 04:39:11;;;;;;;0.10;0.10;;;;;12.90;100519.00;;;;5108542;28;20035;-80
2021/11/21 04:41:40;;;;;;;0.38;0.28;;;;;12.90;100524.00;;;;5108247;28;20063;-80
2021/11/21 04:44:10;;;;;;;0.00;0.00;;;;;12.90;100512.00;;;;5108610;28;20411;-80
2021/11/21 04:46:39;;;;;;;0.00;0.00;;;;;12.80;100527.00;;;;5108343;28;20055;-80
2021/11/21 04:49:08;;;;;;;0.22;0.22;;;;;12.80;100507.00;;;;5108568;28;20040;-80
2021/11/21 04:51:38;;;;;;;0.00;0.00;;;;;12.80;100518.00;;;;5109137;28;20043;-80
2021/11/21 04:54:14;;;;;;;0.00;0.00;;;;;12.80;100520.00;;;;5107892;28;20368;-79
2021/11/21 04:56:46;;;;;;;2.30;1.25;;;;;12.70;100504.00;;;;5089757;28;20059;-80
2021/11/21 04:59:16;;;;;;;0.00;0.00;;;;;12.60;100518.00;;;;5108251;28;20036;-80
2021/11/21 05:01:46;;;;;;;0.00;0.00;;;;;12.70;100520.00;;;;5108013;28;20070;-80
2021/11/21 05:04:15;;;;;;;0.17;0.17;;;;;12.70;100515.00;;;;5107807;28;20066;-81
2021/11/21 05:06:45;;;;;;;0.00;0.00;;;;;12.80;100509.00;;;;5108359;28;20050;-80
2021/11/21 05:09:14;;;;;;;0.55;0.52;;;;;12.90;100514.00;;;;5107957;28;20510;-80
2021/11/21 05:11:44;;;;;;;0.00;0.00;;;;;12.80;100514.00;;;;5089714;28;20048;-81
2021/11/21 05:14:16;;;;;;;0.20;0.20;;;;;12.70;100516.00;;;;5107649;28;20054;-80
2021/11/21 05:16:47;;;;;;;0.93;0.57;;;;;12.70;100506.00;;;;5108652;28;20050;-80
2021/11/21 05:19:17;;;;;;;0.00;0.00;;;;;12.70;100499.00;;;;5108009;28;20152;-80
2021/11/21 05:21:46;;;;;;;0.35;0.10;;;;;12.70;100494.00;;;;5089715;28;20036;-80
2021/11/21 05:24:19;;;;;;;1.80;0.40;;;;;12.60;100505.00;;;;5107391;28;20161;-80
2021/11/21 05:26:48;;;;;;;0.15;0.15;;;;;12.60;100507.00;;;;5106957;28;20108;-79
2021/11/21 05:29:18;;;;;;;0.40;0.40;;;;;12.60;100490.00;;;;5107417;28;20043;-80
2021/11/21 05:31:48;;;;;;;0.52;0.40;;;;;12.60;100490.00;;;;5089495;28;20044;-80
2021/11/21 05:34:17;;;;;;;0.00;0.00;;;;;12.50;100499.00;;;;5107831;28;20039;-80
2021/11/21 05:36:47;;;;;;;0.00;0.00;;;;;12.40;100490.00;;;;5089463;28;20050;-80
2021/11/21 05:39:16;;;;;;;0.00;0.00;;;;;12.50;100490.00;;;;5090270;28;20100;-80
2021/11/21 05:41:46;;;;;;;0.00;0.00;;;;;12.50;100476.00;;;;5107537;28;20108;-79
2021/11/21 05:44:15;;;;;;;0.10;0.10;;;;;12.50;100488.00;;;;5089536;28;20464;-80
2021/11/21 05:46:44;;;;;;;0.20;0.10;;;;;12.50;100490.00;;;;5106868;28;20048;-80
2021/11/21 05:49:14;;;;;;;0.10;0.10;;;;;12.50;100488.00;;;;5107382;28;20578;-80
2021/11/21 05:51:43;;;;;;;0.20;0.20;;;;;12.50;100474.00;;;;5088579;28;20468;-80
2021/11/21 05:54:13;;;;;;;1.88;0.20;;;;;12.50;100491.00;;;;5107292;28;20047;-79
2021/11/21 05:56:42;;;;;;;0.00;0.00;;;;;12.50;100486.00;;;;5107434;28;20563;-79
2021/11/21 05:59:11;;;;;;;0.52;0.28;;;;;12.40;100474.00;;;;5106921;28;20092;-81
2021/11/21 06:01:41;;;;;;;0.68;0.20;;;;;12.40;100465.00;;;;5107684;28;20040;-80
2021/11/21 06:04:10;;;;;;;0.10;0.10;;;;;12.30;100464.00;;;;5107567;28;20047;-80
2021/11/21 06:06:40;;;;;;;0.00;0.00;;;;;12.30;100472.00;;;;5107117;28;20052;-80
2021/11/21 06:09:09;;;;;;;0.22;0.10;;;;;12.30;100491.00;;;;5107569;28;20052;-80
2021/11/21 06:11:38;;;;;;;0.03;0.03;;;;;12.20;100485.00;;;;5088660;28;20048;-80
2021/11/21 06:14:08;;;;;;;0.00;0.00;;;;;12.10;100468.00;;;;5107421;28;20093;-80
2021/11/21 06:16:37;;;;;;;0.10;0.10;;;;;12.20;100469.00;;;;5088536;28;20043;-80
2021/11/21 06:19:07;;;;;;;0.65;0.55;;;;;12.20;100482.00;;;;5107263;28;20077;-79
2021/11/21 06:21:37;;;;;;;0.98;0.25;;;;;12.20;100476.00;;;;5107679;28;20090;-81
2021/11/21 06:24:07;;;;;;;0.10;0.05;;;;;12.20;100467.00;;;;5089427;28;20059;-80
2021/11/21 06:26:37;;;;;;;0.10;0.10;;;;;12.20;100463.00;;;;5107546;28;20097;-80
2021/11/21 06:29:06;;;;;;;0.00;0.00;;;;;12.20;100469.00;;;;5106966;28;20069;-80
2021/11/21 06:31:35;;;;;;;0.70;0.20;;;;;12.10;100469.00;;;;5107410;28;20093;-80
2021/11/21 06:34:05;;;;;;;4.15;0.30;;;;;12.20;100471.00;;;;5107140;28;20171;-80
2021/11/21 06:36:36;;;;;;;0.20;0.20;;;;;12.30;100471.00;;;;5092094;28;20549;-79
2021/11/21 06:39:06;;;;;;;0.13;0.13;;;;;12.20;100489.00;;;;5110809;28;20043;-80
2021/11/21 06:41:37;;;;;;;0.20;0.20;;;;;12.20;100467.00;;;;5111153;28;20052;-80
2021/11/21 06:44:07;;;;;;;1.00;0.90;;;;;12.10;100489.00;;;;5111113;28;20135;-80
2021/11/21 06:46:36;;;;;;;0.00;0.00;;;;;12.10;100461.00;;;;5111218;28;20478;-79
2021/11/21 06:49:07;;;;;;;0.25;0.13;;;;;12.10;100463.00;;;;5110505;28;20123;-79
2021/11/21 06:51:42;;;;;;;0.10;0.10;;;;;12.10;100475.00;;;;5111145;28;20105;-79
2021/11/21 06:54:14;;;;;;;0.60;0.10;;;;;12.10;100476.00;;;;5075673;28;20523;-79
2021/11/21 06:56:43;;;;;;;0.00;0.00;;;;;12.00;100487.00;;;;5110488;28;20039;-80
2021/11/21 06:59:12;;;;;;;0.00;0.00;;;;;12.10;100473.00;;;;5110684;28;21139;-80
2021/11/21 07:01:42;;;;;;;0.00;0.00;;;;;12.10;100474.00;;;;5110291;28;20043;-80
2021/11/21 07:04:12;;;;;;;0.08;0.08;;;;;12.00;100482.00;;;;5092492;28;20047;-79
2021/11/21 07:06:43;;;;;;;0.00;0.00;;;;;11.90;100486.00;;;;5110051;28;20718;-80
2021/11/21 07:09:15;;;;;;;0.00;0.00;;;;;11.80;100474.00;;;;5110272;28;20036;-79
2021/11/21 07:11:48;;;;;;;0.00;0.00;;;;;11.90;100472.00;;;;5110796;28;20040;-81
2021/11/21 07:14:17;;;;;;;0.17;0.17;;;;;11.90;100478.00;;;;5110226;28;20089;-80
2021/11/21 07:16:48;;;;;;;0.00;0.00;;;;;11.90;100484.00;;;;5091478;28;20052;-79
2021/11/21 07:19:18;;;;;;;0.10;0.10;;;;;11.80;100493.00;;;;5110024;28;20044;-79
2021/11/21 07:21:48;;;;;;;0.00;0.00;;;;;11.80;100491.00;;;;5110415;28;20456;-79
2021/11/21 07:24:17;;;;;;;0.00;0.00;;;;;11.70;100505.00;;;;5110100;28;20051;-79
2021/11/21 07:26:47;;;;;;;0.30;0.30;;;;;11.70;100509.00;;;;5109697;28;20061;-79
2021/11/21 07:29:17;;;;;;;0.00;0.00;;;;;11.60;100492.00;;;;5091467;28;20502;-79
2021/11/21 07:31:46;;;;;;;0.00;0.00;;;;;11.60;100487.00;;;;5091189;28;20502;-79
2021/11/21 07:34:16;;;;;;;0.00;0.00;;;;;11.60;100501.00;;;;5109684;28;20039;-80
2021/11/21 07:36:45;;;;;;;0.00;0.00;;;;;11.60;100501.00;;;;5109801;28;20131;-80
2021/11/21 07:39:14;;;;;;;0.00;0.00;;;;;11.60;100497.00;;;;5109749;28;20043;-79
2021/11/21 07:41:44;;;;;;;0.00;0.00;;;;;11.60;100509.00;;;;5109598;28;20056;-79
2021/11/21 07:44:14;;;;;;;0.00;0.00;;;;;11.60;100504.00;;;;5109357;28;20040;-80
2021/11/21 07:46:44;;;;;;;0.00;0.00;;;;;11.50;100521.00;;;;5109771;28;20077;-80
2021/11/21 07:49:13;;;;;;;0.20;0.20;;;;;11.30;100530.00;;;;5109173;28;20155;-79
2021/11/21 07:51:43;;;;;;;0.00;0.00;;;;;11.30;100532.00;;;;5109029;28;20093;-80
2021/11/21 07:54:12;;;;;;;0.00;0.00;;;;;11.30;100530.00;;;;5109392;28;20510;-80
2021/11/21 07:56:41;;;;;;;0.00;0.00;;;;;11.30;100511.00;;;;5109136;28;20035;-79
2021/11/21 07:59:13;;;;;;;0.00;0.00;;;;;11.20;100529.00;;;;5109623;28;20035;-79
2021/11/21 08:01:46;;;;;;;0.35;0.35;;;;;11.20;100532.00;;;;5090763;28;20078;-79
2021/11/21 08:04:17;;;;;;;0.00;0.00;;;;;11.20;100529.00;;;;5091122;28;20043;-80
2021/11/21 08:06:47;;;;;;;0.00;0.00;;;;;11.10;100538.00;;;;5091169;28;20052;-80
2021/11/21 08:09:16;;;;;;;0.00;0.00;;;;;11.00;100527.00;;;;5109060;28;20063;-79
2021/11/21 08:11:46;;;;;;;0.00;0.00;;;;;11.00;100528.00;;;;5091121;28;20083;-79
2021/11/21 08:14:15;;;;;;;0.00;0.00;;;;;11.00;100535.00;;;;5109268;28;20047;-79
2021/11/21 08:16:45;;;;;;;0.00;0.00;;;;;11.10;100537.00;;;;5109473;28;20081;-79
2021/11/21 08:19:14;;;;;;;0.00;0.00;;;;;11.20;100544.00;;;;5109191;28;20044;-80
2021/11/21 08:21:44;;;;;;;0.00;0.00;;;;;11.20;100548.00;;;;5108996;28;20761;-81
2021/11/21 08:24:14;;;;;;;0.20;0.03;;;;;11.20;100563.00;;;;5109104;28;20039;-79
2021/11/21 08:26:43;;;;;;;0.00;0.00;;;;;11.30;100558.00;;;;5108925;28;20043;-80
2021/11/21 08:29:12;;;;;;;0.10;0.10;;;;;11.20;100549.00;;;;5109236;28;20043;-79
2021/11/21 08:31:58;;;;;;;0.00;0.00;;;;;11.30;100551.00;;;;5108291;28;20039;-79
2021/11/21 08:34:29;;;;;;;0.10;0.10;;;;;11.30;100572.00;;;;5108874;28;20439;-80
2021/11/21 08:36:59;;;;;;;0.00;0.00;;;;;11.30;100566.00;;;;5108605;28;20050;-80
2021/11/21 08:39:28;;;;;;;0.00;0.00;;;;;11.30;100567.00;;;;5108747;28;20043;-79
2021/11/21 08:41:57;;;;;;;0.00;0.00;;;;;11.30;100570.00;;;;5108446;28;20043;-79
2021/11/21 08:44:27;;;;;;;0.00;0.00;;;;;11.40;100566.00;;;;5108332;28;20044;-80
2021/11/21 08:46:56;;;;;;;0.10;0.10;;;;;11.50;100569.00;;;;5108292;28;20044;-80
2021/11/21 08:49:26;;;;;;;0.08;0.08;;;;;11.60;100555.00;;;;5108368;28;20047;-79
2021/11/21 08:51:55;;;;;;;0.00;0.00;;;;;11.70;100575.00;;;;5108624;28;20039;-80
2021/11/21 08:54:24;;;;;;;0.00;0.00;;;;;11.70;100575.00;;;;5108748;28;20043;-80
2021/11/21 08:56:54;;;;;;;0.03;0.03;;;;;11.70;100574.00;;;;5108711;28;20043;-79
2021/11/21 08:59:23;;;;;;;0.00;0.00;;;;;11.80;100576.00;;;;5107190;28;20147;-79
2021/11/21 09:01:53;;;;;;;0.50;0.20;;;;;11.90;100567.00;;;;5108261;28;20104;-79
2021/11/21 09:04:22;;;;;;;0.00;0.00;;;;;12.00;100582.00;;;;5108071;28;20050;-80
2021/11/21 09:06:51;;;;;;;0.00;0.00;;;;;12.00;100592.00;;;;5107831;28;20066;-80
2021/11/21 09:09:21;;;;;;;0.00;0.00;;;;;12.10;100575.00;;;;5108492;28;20051;-80
2021/11/21 09:11:50;;;;;;;0.00;0.00;;;;;12.10;100590.00;;;;5107572;28;20050;-81
2021/11/21 09:14:20;;;;;;;0.00;0.00;;;;;12.20;100587.00;;;;5108000;28;20436;-81
2021/11/21 09:16:49;;;;;;;0.00;0.00;;;;;12.30;100588.00;;;;5107705;28;20109;-80
2021/11/21 09:19:19;;;;;;;0.00;0.00;;;;;12.50;100586.00;;;;5073282;28;20056;-80
2021/11/21 09:21:48;;;;;;;0.15;0.15;;;;;12.60;100589.00;;;;5108190;28;20071;-80
2021/11/21 09:24:18;;;;;;;0.20;0.15;;;;;12.80;100574.00;;;;5107716;28;20054;-80
2021/11/21 09:26:47;;;;;;;0.05;0.05;;;;;12.90;100588.00;;;;5107356;28;20044;-80
2021/11/21 09:29:17;;;;;;;0.10;0.10;;;;;13.10;100572.00;;;;5107636;28;20051;-81
2021/11/21 09:31:46;;;;;;;0.20;0.20;;;;;13.30;100592.00;;;;5107407;28;20039;-80
2021/11/21 09:34:15;;;;;;;0.20;0.20;;;;;13.60;100582.00;;;;5107275;28;20047;-80
2021/11/21 09:36:45;;;;;;;0.25;0.20;;;;;13.70;100595.00;;;;5088861;28;20648;-81
2021/11/21 09:39:15;;;;;;;0.22;0.22;;;;;14.20;100562.00;;;;5089900;28;20047;-79
2021/11/21 09:41:45;;;;;;;0.13;0.13;;;;;14.70;100573.00;;;;5072593;28;20055;-80
2021/11/21 09:44:15;;;;;;;0.13;0.13;;;;;14.50;100590.00;;;;5108031;28;20460;-80
2021/11/21 09:46:44;;;;;;;0.00;0.00;;;;;14.50;100583.00;;;;5089259;28;20108;-81
2021/11/21 09:49:15;;;;;;;0.05;0.05;;;;;14.90;100578.00;;;;5106872;28;20047;-83
2021/11/21 09:51:45;;;;;;;0.30;0.30;;;;;14.90;100603.00;;;;5107131;28;20043;-81
2021/11/21 09:54:15;;;;;;;0.30;0.30;;;;;14.90;100603.00;;;;5089616;28;20047;-80
2021/11/21 09:56:45;;;;;;;1.02;0.63;;;;;14.90;100602.00;;;;5107560;28;20533;-80
2021/11/21 09:59:15;;;;;;;0.00;0.00;;;;;15.10;100606.00;;;;5107106;28;20048;-80
2021/11/21 10:01:45;;;;;;;0.10;0.10;;;;;15.20;100594.00;;;;5107195;28;20090;-80
2021/11/21 10:04:18;;;;;;;0.15;0.15;;;;;15.40;100597.00;;;;5107170;28;20048;-80
2021/11/21 10:06:49;;;;;;;0.00;0.00;;;;;16.00;100574.00;;;;5107439;28;20085;-79
2021/11/21 10:09:18;;;;;;;0.25;0.25;;;;;17.80;100551.00;;;;5090984;28;20047;-80
2021/11/21 10:12:06;;;;;;;0.65;0.30;;;;;21.10;100459.00;;;;5111502;28;20047;-80
2021/11/21 10:14:57;;;;;;;0.57;0.57;;;;;24.40;100360.00;;;;5111688;28;20048;-80
2021/11/21 10:17:29;;;;;;;0.70;0.70;;;;;26.90;100364.00;;;;5092941;28;20052;-82
2021/11/21 10:20:18;;;;;;;1.80;1.25;;;;;27.70;100373.00;;;;5111725;28;20051;-81
2021/11/21 10:23:05;;;;;;;0.57;0.57;;;;;28.40;100387.00;;;;5110872;28;20089;-81
2021/11/21 10:25:35;;;;;;;0.28;0.20;;;;;27.00;100464.00;;;;5093123;28;20047;-81
2021/11/21 10:28:15;;;;;;;0.05;0.05;;;;;22.10;100565.00;;;;5110941;28;20039;-81
2021/11/21 10:31:09;;;;;;;0.00;0.00;;;;;21.70;100537.00;;;;5111038;28;20072;-82
2021/11/21 10:33:54;;;;;;;0.40;0.40;;;;;25.80;100452.00;;;;5111542;28;20548;-83
2021/11/21 10:36:26;;;;;;;0.00;0.00;;;;;23.90;100540.00;;;;5111153;28;20040;-81
2021/11/21 10:39:02;;;;;;;0.00;0.00;;;;;21.50;100588.00;;;;5110775;28;20047;-82
2021/11/21 10:41:34;;;;;;;0.00;0.00;;;;;20.90;100580.00;;;;5110987;28;20452;-80
2021/11/21 10:44:20;;;;;;;0.00;0.00;;;;;20.40;100591.00;;;;5110862;28;20115;-82
2021/11/21 10:46:53;;;;;;;0.00;0.00;;;;;20.40;100580.00;;;;5092584;28;20139;-82
2021/11/21 10:49:38;;;;;;;0.00;0.00;;;;;21.10;100557.00;;;;5091572;28;20071;-82
2021/11/21 10:52:18;;;;;;;0.00;0.00;;;;;26.20;100395.00;;;;5092891;28;20082;-82
2021/11/21 10:54:51;;;;;;;1.85;0.32;;;;;29.70;100419.00;;;;5110392;28;20067;-82
2021/11/21 10:57:25;;;;;;;0.88;0.38;;;;;30.40;100429.00;;;;5092092;28;20563;-82
2021/11/21 10:59:59;;;;;;;0.10;0.10;;;;;31.10;100414.00;;;;5110413;28;20070;-83
2021/11/21 11:02:38;;;;;;;0.52;0.32;;;;;31.60;100404.00;;;;5110194;28;20047;-79
2021/11/21 11:05:17;;;;;;;0.00;0.00;;;;;31.70;100422.00;;;;5092953;28;20040;-80
2021/11/21 11:07:47;;;;;;;0.55;0.55;;;;;31.60;100412.00;;;;5109938;28;20043;-80
2021/11/21 11:10:25;;;;;;;0.00;0.00;;;;;31.70;100387.00;;;;5110214;28;20039;-80
2021/11/21 11:13:07;;;;;;;0.17;0.00;;;;;31.30;100391.00;;;;5092328;28;20053;-81
2021/11/21 11:15:39;;;;;;;0.00;0.00;;;;;31.40;100380.00;;;;5092276;28;20050;-81
2021/11/21 11:18:13;;;;;;;0.00;0.00;;;;;31.80;100386.00;;;;5110230;28;20082;-81
2021/11/21 11:20:48;;;;;;;0.52;0.52;;;;;31.60;100392.00;;;;5091648;28;20047;-80
2021/11/21 11:23:20;;;;;;;0.00;0.00;;;;;31.50;100380.00;;;;5110374;28;20047;-80
2021/11/21 11:25:55;;;;;;;0.00;0.00;;;;;31.50;100385.00;;;;5110641;28;20093;-81
2021/11/21 11:28:30;;;;;;;0.00;0.00;;;;;31.30;100392.00;;;;5109858;28;20047;-82
2021/11/21 11:31:19;;;;;;;0.00;0.00;;;;;31.70;100403.00;;;;5110357;28;20051;-81
2021/11/21 11:33:52;;;;;;;0.10;0.10;;;;;30.60;100390.00;;;;5092721;28;20070;-80
2021/11/21 11:36:24;;;;;;;0.15;0.15;;;;;30.50;100421.00;;;;5110078;28;20032;-80
2021/11/21 11:39:06;;;;;;;0.00;0.00;;;;;29.50;100435.00;;;;5110104;28;20112;-80
2021/11/21 11:41:55;;;;;;;0.00;0.00;;;;;29.00;100556.00;;;;5110224;28;20101;-80
2021/11/21 11:44:24;;;;;;;;;;;;;28.80;100573.00;;;;5110920;28;20039;-80
2021/11/21 11:46:54;;;;;;;0.77;0.47;;;;;28.40;100574.00;;;;5110125;28;19923;-81
2021/11/21 11:49:40;;;;;;;0.00;0.00;;;;;28.70;100574.00;;;;5109934;28;20044;-79
2021/11/21 11:52:10;;;;;;;1.88;0.20;;;;;28.50;100567.00;;;;5109473;28;20051;-81
2021/11/21 11:54:42;;;;;;;0.10;0.10;;;;;28.50;100587.00;;;;5109599;28;20036;-82
2021/11/21 11:57:14;;;;;;;0.00;0.00;;;;;28.40;100591.00;;;;5091601;28;20529;-81
2021/11/21 11:59:48;;;;;;;0.17;0.17;;;;;28.60;100576.00;;;;5109445;28;20439;-81
2021/11/21 12:02:41;;;;;;;0.90;0.43;;;;;28.40;100575.00;;;;5109762;28;20040;-80
2021/11/21 12:05:10;;;;;;;0.10;0.08;;;;;28.10;100565.00;;;;5109826;28;20036;-81
2021/11/21 12:07:44;;;;;;;0.00;0.00;;;;;28.50;100576.00;;;;5092076;28;20146;-82
2021/11/21 12:10:18;;;;;;;0.10;0.00;;;;;28.40;100574.00;;;;5109560;28;20130;-82
2021/11/21 12:13:05;;;;;;;0.00;0.00;;;;;28.70;100576.00;;;;5109040;28;20046;-82
2021/11/21 12:15:44;;;;;;;0.38;0.30;;;;;28.80;100577.00;;;;5108438;28;20486;-83
2021/11/21 12:18:14;;;;;;;0.00;0.00;;;;;27.90;100573.00;;;;5092614;28;20053;-82
2021/11/21 12:20:46;;;;;;;0.00;0.00;;;;;28.20;100558.00;;;;5090921;28;20043;-80
2021/11/21 12:23:41;;;;;;;2.30;0.75;;;;;27.90;100574.00;;;;5108105;28;20537;-81
2021/11/21 12:26:21;;;;;;;0.43;0.43;;;;;27.40;100566.00;;;;5108507;28;20601;-77
2021/11/21 12:29:18;;;;;;;0.03;0.03;;;;;28.30;100567.00;;;;5089505;28;20043;-78